createdAt,value
2018-05-05T00:00:11.772Z,0.00
2018-05-05T00:02:04.735Z,0.00
2018-05-05T00:03:04.629Z,0.00
2018-05-05T00:04:58.079Z,0.00
2018-05-05T00:05:57.489Z,0.00
2018-05-05T00:07:50.874Z,0.00
2018-05-05T00:08:50.871Z,0.00
2018-05-05T00:10:43.742Z,0.00
2018-05-05T00:11:43.714Z,0.00
2018-05-05T00:13:37.145Z,0.00
2018-05-05T00:14:37.097Z,0.00
2018-05-05T00:16:29.960Z,0.00
2018-05-05T00:17:29.939Z,0.00
2018-05-05T00:19:22.898Z,0.00
2018-05-05T00:20:22.802Z,0.00
2018-05-05T00:22:15.771Z,0.00
2018-05-05T00:23:15.678Z,0.00
2018-05-05T00:25:09.141Z,0.00
2018-05-05T00:26:08.540Z,0.00
2018-05-05T00:28:02.987Z,0.00
2018-05-05T00:29:01.394Z,0.00
2018-05-05T00:30:54.301Z,0.00
2018-05-05T00:31:54.266Z,0.00
2018-05-05T00:33:47.668Z,0.00
2018-05-05T00:34:47.628Z,0.00
2018-05-05T00:36:40.515Z,0.00
2018-05-05T00:37:40.494Z,0.00
2018-05-05T00:39:33.388Z,0.00
2018-05-05T00:40:33.360Z,0.00
2018-05-05T00:42:26.263Z,0.00
2018-05-05T00:43:26.223Z,0.00
2018-05-05T00:45:19.160Z,0.00
2018-05-05T00:46:19.089Z,0.00
2018-05-05T00:48:12.021Z,0.00
2018-05-05T00:49:11.958Z,0.00
2018-05-05T00:51:04.853Z,0.00
2018-05-05T00:52:04.861Z,0.00
2018-05-05T00:53:57.702Z,0.00
2018-05-05T00:54:57.676Z,0.00
2018-05-05T00:56:50.569Z,0.00
2018-05-05T00:57:50.538Z,0.00
2018-05-05T00:59:43.499Z,0.00
2018-05-05T01:00:43.404Z,0.00
2018-05-05T01:02:36.291Z,0.00
2018-05-05T01:03:36.271Z,0.00
2018-05-05T01:05:29.177Z,0.00
2018-05-05T01:06:29.134Z,0.00
2018-05-05T01:08:22.022Z,0.00
2018-05-05T01:09:22.012Z,0.00
2018-05-05T01:11:14.885Z,0.00
2018-05-05T01:12:14.861Z,0.00
2018-05-05T01:14:07.764Z,0.00
2018-05-05T01:15:07.727Z,0.00
2018-05-05T01:17:01.158Z,0.00
2018-05-05T01:18:01.079Z,0.00
2018-05-05T01:19:54.533Z,0.00
2018-05-05T01:20:54.440Z,0.00
2018-05-05T01:22:47.333Z,0.00
2018-05-05T01:23:47.310Z,0.00
2018-05-05T01:25:40.702Z,0.00
2018-05-05T01:26:40.665Z,0.00
2018-05-05T01:28:35.933Z,0.00
2018-05-05T01:29:34.020Z,0.00
2018-05-05T01:31:26.909Z,0.00
2018-05-05T01:32:26.895Z,0.00
2018-05-05T01:34:19.797Z,0.00
2018-05-05T01:35:19.748Z,0.00
2018-05-05T01:37:13.195Z,0.00
2018-05-05T01:38:13.118Z,0.00
2018-05-05T01:40:05.987Z,0.00
2018-05-05T01:41:05.964Z,0.00
2018-05-05T01:42:59.348Z,0.00
2018-05-05T01:43:59.325Z,0.00
2018-05-05T01:45:52.216Z,0.00
2018-05-05T01:46:52.203Z,0.00
2018-05-05T01:48:45.708Z,0.00
2018-05-05T01:49:45.540Z,0.00
2018-05-05T01:51:38.920Z,0.00
2018-05-05T01:52:38.911Z,0.00
2018-05-05T01:54:31.830Z,0.00
2018-05-05T01:55:31.761Z,0.00
2018-05-05T01:57:24.728Z,0.00
2018-05-05T01:58:24.626Z,0.00
2018-05-05T02:00:17.559Z,0.00
2018-05-05T02:01:17.486Z,0.00
2018-05-05T02:03:10.877Z,0.00
2018-05-05T02:04:10.850Z,0.00
2018-05-05T02:06:03.835Z,0.00
2018-05-05T02:07:03.700Z,0.00
2018-05-05T02:08:56.596Z,0.00
2018-05-05T02:09:56.596Z,0.00
2018-05-05T02:11:49.546Z,0.00
2018-05-05T02:12:49.436Z,0.00
2018-05-05T02:14:42.319Z,0.00
2018-05-05T02:15:42.315Z,0.00
2018-05-05T02:17:35.204Z,0.00
2018-05-05T02:18:35.173Z,0.00
2018-05-05T02:20:28.058Z,0.00
2018-05-05T02:21:28.030Z,0.00
2018-05-05T02:23:21.511Z,0.00
2018-05-05T02:24:20.876Z,0.00
2018-05-05T02:26:13.777Z,0.00
2018-05-05T02:27:13.752Z,0.00
2018-05-05T02:29:06.657Z,0.00
2018-05-05T02:30:06.627Z,0.00
2018-05-05T02:32:00.011Z,0.00
2018-05-05T02:32:59.972Z,0.00
2018-05-05T02:34:52.873Z,0.00
2018-05-05T02:35:52.852Z,0.00
2018-05-05T02:37:45.725Z,0.00
2018-05-05T02:38:45.701Z,0.00
2018-05-05T02:40:38.585Z,0.00
2018-05-05T02:41:38.560Z,0.00
2018-05-05T02:43:32.004Z,0.00
2018-05-05T02:44:31.933Z,0.00
2018-05-05T02:46:24.816Z,0.00
2018-05-05T02:47:24.792Z,0.00
2018-05-05T02:49:17.704Z,0.00
2018-05-05T02:50:17.661Z,0.00
2018-05-05T02:52:10.596Z,0.00
2018-05-05T02:53:10.526Z,0.00
2018-05-05T02:55:03.412Z,0.00
2018-05-05T02:56:03.389Z,0.00
2018-05-05T02:57:57.353Z,0.00
2018-05-05T02:58:56.733Z,0.00
2018-05-05T03:00:50.105Z,0.00
2018-05-05T03:01:50.085Z,0.00
2018-05-05T03:03:42.971Z,0.00
2018-05-05T03:04:42.955Z,0.00
2018-05-05T03:06:35.905Z,0.00
2018-05-05T03:07:35.807Z,0.00
2018-05-05T03:09:28.723Z,0.00
2018-05-05T03:10:28.700Z,0.00
2018-05-05T03:12:21.582Z,0.00
2018-05-05T03:13:21.563Z,0.00
2018-05-05T03:15:14.955Z,0.00
2018-05-05T03:16:14.906Z,0.00
2018-05-05T03:18:07.875Z,0.00
2018-05-05T03:19:07.793Z,0.00
2018-05-05T03:21:01.168Z,0.00
2018-05-05T03:22:01.141Z,0.00
2018-05-05T03:23:54.082Z,0.00
2018-05-05T03:24:53.996Z,0.00
2018-05-05T03:26:47.087Z,0.00
2018-05-05T03:27:46.878Z,0.00
2018-05-05T03:29:39.743Z,0.00
2018-05-05T03:30:39.734Z,0.00
2018-05-05T03:32:32.758Z,0.00
2018-05-05T03:33:32.586Z,0.00
2018-05-05T03:35:25.957Z,0.00
2018-05-05T03:36:25.933Z,0.00
2018-05-05T03:38:19.388Z,0.00
2018-05-05T03:39:18.790Z,0.00
2018-05-05T03:41:11.758Z,0.00
2018-05-05T03:42:11.696Z,0.00
2018-05-05T03:44:04.565Z,0.00
2018-05-05T03:45:04.532Z,0.00
2018-05-05T03:46:57.918Z,0.00
2018-05-05T03:47:57.883Z,0.00
2018-05-05T03:49:50.832Z,0.00
2018-05-05T03:50:50.751Z,0.00
2018-05-05T03:52:43.666Z,0.00
2018-05-05T03:53:43.612Z,0.00
2018-05-05T03:55:36.504Z,0.00
2018-05-05T03:56:36.464Z,0.00
2018-05-05T03:58:29.846Z,0.00
2018-05-05T03:59:29.814Z,5.63
2018-05-05T04:01:22.705Z,5.63
2018-05-05T04:02:22.681Z,5.63
2018-05-05T04:04:15.631Z,5.63
2018-05-05T04:05:15.538Z,5.63
2018-05-05T04:07:08.437Z,5.63
2018-05-05T04:08:08.398Z,5.63
2018-05-05T04:10:01.321Z,11.25
2018-05-05T04:11:01.261Z,11.25
2018-05-05T04:12:54.640Z,11.25
2018-05-05T04:13:54.610Z,11.25
2018-05-05T04:15:47.541Z,11.25
2018-05-05T04:16:47.472Z,16.88
2018-05-05T04:18:40.884Z,16.88
2018-05-05T04:19:40.851Z,16.88
2018-05-05T04:21:33.753Z,16.88
2018-05-05T04:22:33.692Z,16.88
2018-05-05T04:24:26.617Z,22.50
2018-05-05T04:25:26.550Z,22.50
2018-05-05T04:27:19.449Z,22.50
2018-05-05T04:28:19.429Z,22.50
2018-05-05T04:30:12.313Z,28.13
2018-05-05T04:31:12.293Z,28.13
2018-05-05T04:33:05.172Z,28.13
2018-05-05T04:34:05.137Z,28.13
2018-05-05T04:35:58.609Z,33.75
2018-05-05T04:36:58.484Z,33.75
2018-05-05T04:38:51.389Z,33.75
2018-05-05T04:39:51.362Z,33.75
2018-05-05T04:41:44.357Z,39.38
2018-05-05T04:42:44.224Z,39.38
2018-05-05T04:44:37.111Z,39.38
2018-05-05T04:45:37.091Z,39.38
2018-05-05T04:47:29.981Z,45.00
2018-05-05T04:48:29.939Z,45.00
2018-05-05T04:50:23.391Z,45.00
2018-05-05T04:51:22.845Z,45.00
2018-05-05T04:53:15.680Z,50.63
2018-05-05T04:54:15.664Z,50.63
2018-05-05T04:56:08.577Z,50.63
2018-05-05T04:57:08.598Z,50.63
2018-05-05T04:59:01.443Z,56.25
2018-05-05T05:00:01.376Z,56.25
2018-05-05T05:01:54.274Z,56.25
2018-05-05T05:02:54.258Z,56.25
2018-05-05T05:04:47.140Z,61.88
2018-05-05T05:05:47.098Z,61.88
2018-05-05T05:07:40.560Z,61.88
2018-05-05T05:08:39.960Z,67.50
2018-05-05T05:10:33.063Z,78.75
2018-05-05T05:11:32.925Z,84.38
2018-05-05T05:13:25.815Z,123.75
2018-05-05T05:14:25.809Z,157.50
2018-05-05T05:16:18.685Z,191.25
2018-05-05T05:17:18.658Z,208.13
2018-05-05T05:19:11.552Z,219.38
2018-05-05T05:20:11.521Z,225.00
2018-05-05T05:22:04.911Z,236.25
2018-05-05T05:23:04.880Z,236.25
2018-05-05T05:24:58.252Z,241.88
2018-05-05T05:25:58.232Z,253.13
2018-05-05T05:27:51.133Z,258.75
2018-05-05T05:28:51.149Z,258.75
2018-05-05T05:30:43.987Z,275.63
2018-05-05T05:31:43.973Z,275.63
2018-05-05T05:33:37.446Z,157.50
2018-05-05T05:34:37.341Z,123.75
2018-05-05T05:36:30.224Z,281.25
2018-05-05T05:37:30.219Z,320.63
2018-05-05T05:39:23.202Z,331.88
2018-05-05T05:40:23.092Z,343.13
2018-05-05T05:42:16.287Z,354.38
2018-05-05T05:43:15.959Z,354.38
2018-05-05T05:45:09.712Z,382.50
2018-05-05T05:46:09.340Z,388.13
2018-05-05T05:48:03.082Z,410.63
2018-05-05T05:49:03.014Z,433.13
2018-05-05T05:50:55.926Z,478.13
2018-05-05T05:51:55.584Z,511.88
2018-05-05T05:53:48.809Z,596.25
2018-05-05T05:54:48.791Z,630.00
2018-05-05T05:56:42.182Z,720.00
2018-05-05T05:57:42.141Z,781.88
2018-05-05T05:59:36.563Z,905.63
2018-05-05T06:00:36.577Z,995.63
2018-05-05T06:02:29.464Z,1147.50
2018-05-05T06:03:29.190Z,1198.13
2018-05-05T06:05:23.003Z,1321.88
2018-05-05T06:06:22.855Z,1366.88
2018-05-05T06:08:15.815Z,1243.13
2018-05-05T06:09:17.090Z,1164.38
2018-05-05T06:11:09.286Z,1012.50
2018-05-05T06:12:09.119Z,900.00
2018-05-05T06:14:04.069Z,776.25
2018-05-05T06:15:02.204Z,748.13
2018-05-05T06:16:55.969Z,697.50
2018-05-05T06:17:55.904Z,680.63
2018-05-05T06:19:49.344Z,630.00
2018-05-05T06:20:48.983Z,607.50
2018-05-05T06:23:06.427Z,562.50
2018-05-05T06:24:06.405Z,551.25
2018-05-05T06:26:00.114Z,540.00
2018-05-05T06:26:59.775Z,534.38
2018-05-05T06:28:52.689Z,528.75
2018-05-05T06:29:52.697Z,528.75
2018-05-05T06:31:46.449Z,534.38
2018-05-05T06:32:46.067Z,540.00
2018-05-05T06:34:40.369Z,551.25
2018-05-05T06:35:39.270Z,551.25
2018-05-05T06:37:32.727Z,551.25
2018-05-05T06:38:32.706Z,556.88
2018-05-05T06:40:26.100Z,562.50
2018-05-05T06:41:26.320Z,568.13
2018-05-05T06:43:23.616Z,568.13
2018-05-05T06:44:22.114Z,573.75
2018-05-05T06:46:15.507Z,585.00
2018-05-05T06:47:15.476Z,590.63
2018-05-05T06:49:08.866Z,601.88
2018-05-05T06:50:08.859Z,607.50
2018-05-05T06:52:02.334Z,618.75
2018-05-05T06:53:02.230Z,635.63
2018-05-05T06:54:55.669Z,663.75
2018-05-05T06:55:55.695Z,680.63
2018-05-05T06:57:48.618Z,736.88
2018-05-05T06:58:48.537Z,759.38
2018-05-05T07:00:41.505Z,1080.00
2018-05-05T07:01:41.657Z,1575.00
2018-05-05T07:03:34.931Z,1822.50
2018-05-05T07:04:34.461Z,1822.50
2018-05-05T07:06:28.291Z,1777.50
2018-05-05T07:07:28.084Z,1693.13
2018-05-05T07:09:23.225Z,1485.00
2018-05-05T07:10:22.781Z,1479.38
2018-05-05T07:12:15.542Z,1558.13
2018-05-05T07:13:16.029Z,1552.50
2018-05-05T07:15:09.254Z,1440.00
2018-05-05T07:16:09.443Z,1411.88
2018-05-05T07:18:08.246Z,1378.13
2018-05-05T07:19:03.215Z,1451.25
2018-05-05T07:20:56.224Z,1462.50
2018-05-05T07:21:56.036Z,1462.50
2018-05-05T07:23:49.453Z,1546.88
2018-05-05T07:24:49.574Z,1552.50
2018-05-05T07:26:43.706Z,1648.13
2018-05-05T07:27:43.579Z,1597.50
2018-05-05T07:29:37.833Z,1546.88
2018-05-05T07:30:37.649Z,1563.75
2018-05-05T07:32:31.150Z,1507.50
2018-05-05T07:33:33.138Z,1631.25
2018-05-05T07:35:25.757Z,1558.13
2018-05-05T07:36:26.157Z,1428.75
2018-05-05T07:38:18.761Z,1383.75
2018-05-05T07:39:18.415Z,1400.63
2018-05-05T07:41:11.491Z,967.50
2018-05-05T07:42:11.428Z,720.00
2018-05-05T07:44:04.792Z,517.50
2018-05-05T07:45:04.864Z,472.50
2018-05-05T07:46:58.341Z,360.00
2018-05-05T07:47:58.257Z,331.88
2018-05-05T07:49:51.638Z,286.88
2018-05-05T07:50:51.215Z,270.00
2018-05-05T07:52:44.194Z,247.50
2018-05-05T07:53:44.093Z,241.88
2018-05-05T07:55:37.473Z,219.38
2018-05-05T07:56:37.462Z,208.13
2018-05-05T07:58:30.969Z,202.50
2018-05-05T07:59:30.934Z,191.25
2018-05-05T08:01:23.949Z,180.00
2018-05-05T08:02:23.844Z,174.38
2018-05-05T08:04:16.915Z,168.75
2018-05-05T08:05:16.733Z,163.13
2018-05-05T08:07:10.036Z,157.50
2018-05-05T08:08:09.949Z,157.50
2018-05-05T08:10:03.432Z,151.88
2018-05-05T08:11:04.052Z,151.88
2018-05-05T08:12:57.051Z,151.88
2018-05-05T08:15:30.253Z,151.88
2018-05-05T08:17:26.472Z,151.88
2018-05-05T08:19:41.963Z,146.25
2018-05-05T08:21:48.457Z,146.25
2018-05-05T08:22:48.470Z,146.25
2018-05-05T08:24:41.607Z,146.25
2018-05-05T08:25:41.308Z,146.25
2018-05-05T08:27:34.280Z,146.25
2018-05-05T08:28:34.221Z,146.25
2018-05-05T08:30:27.093Z,146.25
2018-05-05T08:31:27.074Z,146.25
2018-05-05T08:33:20.002Z,140.63
2018-05-05T08:34:19.960Z,140.63
2018-05-05T08:36:12.871Z,140.63
2018-05-05T08:37:12.860Z,140.63
2018-05-05T08:39:05.765Z,140.63
2018-05-05T08:40:05.740Z,140.63
2018-05-05T08:41:59.169Z,140.63
2018-05-05T08:42:59.135Z,140.63
2018-05-05T08:44:52.525Z,135.00
2018-05-05T08:45:52.515Z,135.00
2018-05-05T08:47:45.897Z,135.00
2018-05-05T08:48:45.874Z,135.00
2018-05-05T08:50:38.799Z,129.38
2018-05-05T08:51:38.776Z,129.38
2018-05-05T08:53:32.230Z,129.38
2018-05-05T08:54:31.664Z,129.38
2018-05-05T08:56:26.077Z,129.38
2018-05-05T08:57:25.044Z,129.38
2018-05-05T08:59:18.470Z,129.38
2018-05-05T09:00:18.440Z,129.38
2018-05-05T09:02:11.844Z,135.00
2018-05-05T09:03:11.957Z,129.38
2018-05-05T09:05:04.778Z,123.75
2018-05-05T09:06:04.699Z,123.75
2018-05-05T09:07:57.778Z,123.75
2018-05-05T09:08:57.586Z,123.75
2018-05-05T09:10:51.067Z,123.75
2018-05-05T09:11:51.001Z,123.75
2018-05-05T09:13:45.375Z,123.75
2018-05-05T09:14:45.337Z,123.75
2018-05-05T09:16:38.745Z,123.75
2018-05-05T09:17:38.709Z,118.13
2018-05-05T09:19:31.660Z,118.13
2018-05-05T09:20:31.588Z,118.13
2018-05-05T09:22:24.501Z,118.13
2018-05-05T09:23:24.470Z,118.13
2018-05-05T09:25:17.880Z,112.50
2018-05-05T09:26:17.848Z,112.50
2018-05-05T09:28:11.334Z,112.50
2018-05-05T09:29:11.815Z,112.50
2018-05-05T09:31:04.222Z,112.50
2018-05-05T09:32:04.176Z,112.50
2018-05-05T09:33:57.461Z,112.50
2018-05-05T09:34:57.091Z,112.50
2018-05-05T09:36:50.738Z,112.50
2018-05-05T09:37:53.576Z,112.50
2018-05-05T09:39:44.579Z,112.50
2018-05-05T09:40:48.064Z,112.50
2018-05-05T09:42:38.807Z,112.50
2018-05-05T09:43:37.704Z,112.50
2018-05-05T09:45:32.084Z,112.50
2018-05-05T09:46:32.976Z,112.50
2018-05-05T09:48:25.472Z,112.50
2018-05-05T09:49:25.512Z,112.50
2018-05-05T09:51:19.282Z,112.50
2018-05-05T09:52:18.325Z,112.50
2018-05-05T09:54:12.278Z,112.50
2018-05-05T09:55:11.730Z,112.50
2018-05-05T09:57:06.803Z,112.50
2018-05-05T09:58:05.494Z,112.50
2018-05-05T09:59:58.546Z,112.50
2018-05-05T10:00:58.481Z,112.50
2018-05-05T10:02:51.874Z,112.50
2018-05-05T10:03:52.249Z,112.50
2018-05-05T10:05:46.154Z,112.50
2018-05-05T10:06:46.552Z,112.50
2018-05-05T10:08:38.384Z,106.88
2018-05-05T10:09:37.987Z,106.88
2018-05-05T10:11:31.280Z,106.88
2018-05-05T10:12:31.273Z,106.88
2018-05-05T10:14:24.761Z,106.88
2018-05-05T10:15:24.266Z,106.88
2018-05-05T10:17:17.553Z,106.88
2018-05-05T10:18:17.228Z,106.88
2018-05-05T10:20:11.055Z,106.88
2018-05-05T10:21:11.019Z,106.88
2018-05-05T10:23:05.261Z,106.88
2018-05-05T10:24:05.244Z,106.88
2018-05-05T10:26:01.004Z,106.88
2018-05-05T10:26:59.268Z,106.88
2018-05-05T10:28:53.633Z,106.88
2018-05-05T10:29:51.771Z,106.88
2018-05-05T10:31:46.316Z,106.88
2018-05-05T10:33:59.169Z,106.88
2018-05-05T10:34:58.771Z,106.88
2018-05-05T10:36:53.990Z,106.88
2018-05-05T10:37:52.073Z,106.88
2018-05-05T10:39:51.014Z,106.88
2018-05-05T10:40:47.960Z,101.25
2018-05-05T10:42:42.769Z,101.25
2018-05-05T10:43:42.661Z,101.25
2018-05-05T10:45:36.652Z,101.25
2018-05-05T10:46:36.639Z,101.25
2018-05-05T10:48:30.040Z,101.25
2018-05-05T10:49:30.025Z,101.25
2018-05-05T10:51:23.545Z,101.25
2018-05-05T10:52:23.338Z,101.25
2018-05-05T10:54:17.740Z,101.25
2018-05-05T10:55:17.431Z,101.25
2018-05-05T10:57:11.180Z,101.25
2018-05-05T10:58:11.061Z,101.25
2018-05-05T11:00:04.562Z,101.25
2018-05-05T11:01:04.478Z,101.25
2018-05-05T11:02:59.298Z,101.25
2018-05-05T11:03:58.867Z,101.25
2018-05-05T11:05:52.286Z,101.25
2018-05-05T11:06:52.311Z,101.25
2018-05-05T11:08:46.254Z,101.25
2018-05-05T11:09:45.696Z,101.25
2018-05-05T11:11:39.404Z,101.25
2018-05-05T11:12:39.126Z,101.25
2018-05-05T11:14:35.068Z,101.25
2018-05-05T11:15:34.540Z,101.25
2018-05-05T11:17:26.770Z,101.25
2018-05-05T11:18:26.744Z,95.63
2018-05-05T11:20:19.885Z,95.63
2018-05-05T11:21:19.472Z,95.63
2018-05-05T11:23:13.215Z,95.63
2018-05-05T11:24:13.287Z,95.63
2018-05-05T11:26:07.581Z,101.25
2018-05-05T11:27:07.512Z,101.25
2018-05-05T11:29:03.737Z,101.25
2018-05-05T11:30:03.505Z,101.25
2018-05-05T11:32:11.009Z,101.25
